Ajo, AZ (85321)

11:07 AM MST on August 31, 2015 (GMT -0700)
KAZAJO2 | | Change Station
CLOSE
Current Station
Personal Weather Station
Location: Ajo, AZ
Elevation: 1739 ft
Nearby Weather Stations

Elev 1739 ft 32.38 °N, 112.86 °W | Updated 2 minutes ago

Clear
Clear
97.4 °F
Feels Like 98 °F
N
7.0
Wind Variable Wind from ESE
Gusts 12.0 mph

Today
High -- | Low -- °F
--% Chance of Precip.
Yesterday
High -- | Low -- °F
Precip. -- in
6:05 AM 6:57 PM
Waning Gibbous, 94% visible
Pressure 29.80 in
Visibility 10.0 miles
Clouds Few 15000 ft
Few 22000 ft
Heat Index 98 °F
Dew Point 61 °F
Humidity 30%
Rainfall 0.00 in
Snow Depth Not available.
UV 9 out of 12
Pollen 5.60 out of 12
Air Quality Not available.
Flu Activity Not available.
METAR KGXF 311758Z VRB03KT 10SM FEW150 FEW220 38/15 A2984 RMK AO2A SLP090 T03780150 10383 20295 55002
Pressure 29.80 in
Visibility 10.0 miles
Clouds Few 15000 ft
Few 22000 ft
Heat Index 98 °F
Dew Point 61 °F
Humidity 30%
Rainfall 0.00 in
Snow Depth Not available.
UV 9 out of 12
Pollen 5.60 out of 12
Air Quality Not available.
Flu Activity Not available.
METAR KGXF 311758Z VRB03KT 10SM FEW150 FEW220 38/15 A2984 RMK AO2A SLP090 T03780150 10383 20295 55002

10-Day Weather Forecast

×

Almanac

Astronomy

Aug. 31, 2015 Rise Set
Actual Time
Civil Twilight
Nautical Twilight
Astronomical Twilight
Moon
Length of Visible Light
Length of Day
Tomorrow will be .
, % of the Moon is Illuminated

Today's Extremes

State Highs State Lows

Community

WunderPhotos

Upload Photos

1,851,324 photos uploaded!

WunderBlogs® & News

Nearby

Air Quality

  Air Quality AQ Index Pollutant
Not available.

Snow Depth

Station Depth Elevation

Earthquake Activity

City Distance Mag. Time & Date
Minimum magnitude displayed is 2.5.

Coastal Water Temperatures

Place Temperature

Stations

Nearby Weather Stations

Station Location Temp. Windchill Dew Point Humidity Wind Precip. Elev Updated Type